Time;durP1;ratioP1;P1;durP2;ratioP2;P2;SDS_P1;SDS_P2;PMS_P1;PMS_P2;Temp;Humidity;BMP_temperature;BMP_pressure;BME280_temperature;BME280_humidity;BME280_pressure;Samples;Min_cycle;Max_cycle;Signal;HPM_P1;HPM_P2
2021/11/02 00:04:13;;;;;;;16.1;19.7;;;;;;;8.9;70.8;97540;;;;
2021/11/02 00:14:13;;;;;;;16.1;19.7;;;;;;;9;70.6;97540;;;;
2021/11/02 00:24:14;;;;;;;16.1;19.7;;;;;;;9.3;69.7;97530;;;;
2021/11/02 00:34:12;;;;;;;12;15.6;;;;;;;9.7;68.3;97520;;;;
2021/11/02 00:45:14;;;;;;;12;15.6;;;;;;;9.7;68.2;97520;;;;
2021/11/02 00:55:12;;;;;;;12;15.6;;;;;;;9.9;67.3;97510;;;;
2021/11/02 01:05:12;;;;;;;11.1;13.1;;;;;;;10;66.7;97510;;;;
2021/11/02 01:15:12;;;;;;;11.1;13.1;;;;;;;10;66.5;97500;;;;
2021/11/02 01:25:12;;;;;;;11.1;13.1;;;;;;;9.9;68.2;97490;;;;
2021/11/02 01:35:12;;;;;;;10.6;15.6;;;;;;;9.9;68.4;97480;;;;
2021/11/02 01:45:13;;;;;;;10.6;15.6;;;;;;;9.9;68.2;97470;;;;
2021/11/02 01:55:12;;;;;;;10.6;15.6;;;;;;;9.9;68.5;97450;;;;
2021/11/02 02:05:12;;;;;;;11.2;15.2;;;;;;;9.8;69;97440;;;;
2021/11/02 02:15:12;;;;;;;11.2;15.2;;;;;;;9.7;69.9;97420;;;;
2021/11/02 02:26:12;;;;;;;11.2;15.2;;;;;;;9.5;70.2;97420;;;;
2021/11/02 02:36:12;;;;;;;15;17.1;;;;;;;9.5;70.4;97420;;;;
2021/11/02 02:46:12;;;;;;;15;17.1;;;;;;;9.3;72;97430;;;;
2021/11/02 02:57:12;;;;;;;15;17.1;;;;;;;9.4;71.6;97410;;;;
2021/11/02 03:08:12;;;;;;;14.7;18.1;;;;;;;9.5;71.3;97420;;;;
2021/11/02 03:18:20;;;;;;;14.7;18.1;;;;;;;9.5;71.4;97430;;;;
2021/11/02 03:48:20;;;;;;;13.2;15.6;;;;;;;9.4;72;97410;;;;
2021/11/02 03:58:16;;;;;;;13.2;15.6;;;;;;;9.3;72.6;97420;;;;
2021/11/02 04:28:24;;;;;;;17.8;24.4;;;;;;;8.7;74.9;97390;;;;
2021/11/02 04:57:55;;;;;;;22.4;29.9;;;;;;;8.8;75.3;97370;;;;
2021/11/02 05:06:47;;;;;;;22.4;29.9;;;;;;;8.7;76.8;97350;;;;
2021/11/02 05:08:46;;;;;;;20.2;24.3;;;;;;;8.8;77.1;97350;;;;
2021/11/02 05:48:19;;;;;;;20.2;24.4;;;;;;;8.6;77.2;97320;;;;
2021/11/02 05:59:23;;;;;;;22.3;27.4;;;;;;;8.5;77.5;97320;;;;
2021/11/02 06:09:20;;;;;;;22.3;27.4;;;;;;;8.4;78;97320;;;;
2021/11/02 06:29:12;;;;;;;24.9;29.1;;;;;;;8.5;78;97360;;;;
2021/11/02 06:39:32;;;;;;;24.9;29.1;;;;;;;8.6;78.3;97360;;;;
2021/11/02 06:59:35;;;;;;;23.3;28.1;;;;;;;9;77.9;97380;;;;
2021/11/02 08:52:34;;;;;;;22.1;26.3;;;;;;;9.7;76.2;97380;;;;
2021/11/02 09:03:33;;;;;;;22.6;25.3;;;;;;;9.8;76.4;97370;;;;
2021/11/02 09:14:33;;;;;;;22.6;25.3;;;;;;;9.9;76.5;97380;;;;
2021/11/02 09:24:35;;;;;;;22.6;25.3;;;;;;;9.9;77;97380;;;;
2021/11/02 09:34:33;;;;;;;20.7;24.7;;;;;;;9.7;77.6;97370;;;;
2021/11/02 09:44:36;;;;;;;20.7;24.7;;;;;;;9.9;77.5;97380;;;;
2021/11/02 09:54:34;;;;;;;20.7;24.7;;;;;;;10;77.3;97390;;;;
2021/11/02 10:04:36;;;;;;;26.1;35.6;;;;;;;9.9;77.8;97390;;;;
2021/11/02 10:14:35;;;;;;;26.1;35.6;;;;;;;9.6;79.9;97370;;;;
2021/11/02 10:25:33;;;;;;;26.1;35.6;;;;;;;9.6;79.9;97380;;;;
2021/11/02 10:35:34;;;;;;;23.2;28.5;;;;;;;9.7;80.1;97370;;;;
2021/11/02 10:46:34;;;;;;;23.2;28.5;;;;;;;9.6;80.4;97370;;;;
2021/11/02 10:56:33;;;;;;;23.2;28.5;;;;;;;9.4;81.1;97360;;;;
2021/11/02 11:06:34;;;;;;;21.5;23.8;;;;;;;9.5;81.3;97370;;;;
2021/11/02 11:16:33;;;;;;;21.5;23.8;;;;;;;9.7;80.6;97360;;;;
2021/11/02 11:26:34;;;;;;;21.5;23.8;;;;;;;9.9;80.5;97370;;;;
2021/11/02 11:36:34;;;;;;;20.8;24.2;;;;;;;10;80.2;97360;;;;
2021/11/02 11:46:34;;;;;;;20.8;24.2;;;;;;;10.3;79.3;97350;;;;
2021/11/02 11:57:34;;;;;;;20.8;24.2;;;;;;;10.7;78.3;97350;;;;
2021/11/02 12:07:35;;;;;;;23.2;29.6;;;;;;;10.8;77.5;97360;;;;
2021/11/02 12:17:34;;;;;;;23.2;29.6;;;;;;;10.6;78;97360;;;;
2021/11/02 12:27:34;;;;;;;23.2;29.6;;;;;;;10.5;78.8;97350;;;;
2021/11/02 12:37:34;;;;;;;30.5;34.5;;;;;;;10.3;79.4;97350;;;;
2021/11/02 12:48:34;;;;;;;30.5;34.5;;;;;;;10.1;80.4;97330;;;;
2021/11/02 12:58:34;;;;;;;27.1;30.2;;;;;;;10;80.8;97340;;;;
2021/11/02 13:08:35;;;;;;;27.1;30.2;;;;;;;10.2;79.7;97340;;;;
2021/11/02 13:18:34;;;;;;;27.1;30.2;;;;;;;10.4;79.5;97350;;;;
2021/11/02 13:28:34;;;;;;;22.9;28.8;;;;;;;10.5;79.5;97340;;;;
2021/11/02 13:39:34;;;;;;;22.9;28.8;;;;;;;10.4;79.9;97340;;;;
2021/11/02 13:49:34;;;;;;;22.9;28.8;;;;;;;10.8;78.7;97350;;;;
2021/11/02 13:59:34;;;;;;;21.7;25;;;;;;;10.7;78.8;97350;;;;
2021/11/02 14:09:34;;;;;;;21.7;25;;;;;;;10.4;79.4;97350;;;;
2021/11/02 14:19:34;;;;;;;21.7;25;;;;;;;10.3;79;97350;;;;
2021/11/02 14:29:34;;;;;;;18.4;21.3;;;;;;;10.1;79.5;97350;;;;
2021/11/02 14:39:34;;;;;;;18.4;21.3;;;;;;;9.9;80.2;97360;;;;
2021/11/02 14:49:36;;;;;;;18.4;21.3;;;;;;;9.6;81.2;97350;;;;
2021/11/02 14:59:34;;;;;;;17.4;20.8;;;;;;;9.8;80.6;97360;;;;
2021/11/02 15:09:34;;;;;;;17.4;20.8;;;;;;;9.7;80.5;97360;;;;
2021/11/02 15:19:34;;;;;;;17.4;20.8;;;;;;;9.4;81.1;97380;;;;
2021/11/02 15:29:34;;;;;;;19.2;22.5;;;;;;;9.2;82.1;97370;;;;
2021/11/02 15:39:34;;;;;;;19.2;22.5;;;;;;;9.4;81.4;97370;;;;
2021/11/02 15:49:34;;;;;;;19.2;22.5;;;;;;;9.4;81.4;97370;;;;
2021/11/02 16:00:34;;;;;;;39;45;;;;;;;9.4;81.2;97370;;;;
2021/11/02 16:10:34;;;;;;;39;45;;;;;;;9.3;81.6;97370;;;;
2021/11/02 16:20:34;;;;;;;39;45;;;;;;;9.4;81.4;97370;;;;
2021/11/02 16:30:34;;;;;;;27;31.4;;;;;;;9.4;80.9;97380;;;;
2021/11/02 16:40:34;;;;;;;27;31.4;;;;;;;9.5;80.5;97380;;;;
2021/11/02 16:50:34;;;;;;;27;31.4;;;;;;;9.2;81.7;97400;;;;
2021/11/02 17:00:34;;;;;;;18.3;20.4;;;;;;;9.3;81.6;97420;;;;
2021/11/02 17:10:34;;;;;;;18.3;20.4;;;;;;;9.3;81.5;97430;;;;
2021/11/02 17:20:34;;;;;;;18.3;20.4;;;;;;;9.2;80.9;97430;;;;
2021/11/02 17:31:37;;;;;;;18.7;21.6;;;;;;;9.1;81.3;97440;;;;
2021/11/02 17:41:34;;;;;;;18.7;21.6;;;;;;;9.1;81.3;97450;;;;
2021/11/02 17:51:34;;;;;;;18.7;21.6;;;;;;;9.1;81.4;97460;;;;
2021/11/02 18:01:34;;;;;;;21.5;25.1;;;;;;;9;81.6;97460;;;;
2021/11/02 18:11:34;;;;;;;21.5;25.1;;;;;;;9;81.9;97460;;;;
2021/11/02 18:21:34;;;;;;;21.5;25.1;;;;;;;8.9;81.8;97480;;;;
2021/11/02 18:31:34;;;;;;;21.4;28.1;;;;;;;8.9;81.7;97480;;;;
2021/11/02 18:42:34;;;;;;;21.4;28.1;;;;;;;8.8;81.8;97480;;;;
2021/11/02 18:52:34;;;;;;;21.4;28.1;;;;;;;8.9;81.6;97490;;;;
2021/11/02 19:02:34;;;;;;;24.8;31.7;;;;;;;8.7;81.3;97500;;;;
2021/11/02 19:12:34;;;;;;;24.8;31.7;;;;;;;8.8;81.2;97500;;;;
2021/11/02 19:22:34;;;;;;;24.8;31.7;;;;;;;8.8;81.1;97510;;;;
2021/11/02 19:32:34;;;;;;;48.7;61.8;;;;;;;8.7;80.7;97520;;;;
2021/11/02 19:42:34;;;;;;;48.7;61.8;;;;;;;8.6;81.1;97530;;;;
2021/11/02 19:52:34;;;;;;;48.7;61.8;;;;;;;8.5;81.4;97540;;;;
2021/11/02 20:02:34;;;;;;;22.8;27.8;;;;;;;8.5;81.4;97550;;;;
2021/11/02 20:12:35;;;;;;;22.8;27.8;;;;;;;8.4;81.6;97560;;;;
2021/11/02 20:22:34;;;;;;;22.8;27.8;;;;;;;8.4;81.3;97570;;;;
2021/11/02 20:32:34;;;;;;;23.2;30.1;;;;;;;8.3;81.8;97580;;;;
2021/11/02 20:42:34;;;;;;;23.2;30.1;;;;;;;8.4;81.6;97580;;;;
2021/11/02 20:52:34;;;;;;;23.2;30.1;;;;;;;8.4;81.4;97590;;;;
2021/11/02 21:02:34;;;;;;;20.2;24.5;;;;;;;8.4;81.3;97590;;;;
2021/11/02 21:12:34;;;;;;;20.2;24.5;;;;;;;8.5;81.3;97600;;;;
2021/11/02 21:22:34;;;;;;;20.2;24.5;;;;;;;8.4;81.1;97600;;;;
2021/11/02 21:32:34;;;;;;;21.7;26.2;;;;;;;8.5;80.8;97610;;;;
2021/11/02 21:42:34;;;;;;;21.7;26.2;;;;;;;8.4;81.1;97620;;;;
2021/11/02 21:52:34;;;;;;;21.7;26.2;;;;;;;8.5;81;97620;;;;
2021/11/02 22:02:34;;;;;;;21.3;25.5;;;;;;;8.4;80.9;97620;;;;
2021/11/02 22:12:34;;;;;;;21.3;25.5;;;;;;;8.5;80.8;97620;;;;
2021/11/02 22:22:34;;;;;;;21.3;25.5;;;;;;;8.6;80.7;97630;;;;
2021/11/02 22:32:34;;;;;;;19.8;24.6;;;;;;;8.5;80.7;97640;;;;
2021/11/02 22:42:34;;;;;;;19.8;24.6;;;;;;;8.4;80.8;97640;;;;
2021/11/02 22:53:34;;;;;;;19.8;24.6;;;;;;;8.4;81.1;97650;;;;
2021/11/02 23:03:34;;;;;;;18.5;25.4;;;;;;;8.5;80.6;97650;;;;
2021/11/02 23:13:34;;;;;;;18.5;25.4;;;;;;;8.5;80.5;97660;;;;
2021/11/02 23:23:34;;;;;;;18.5;25.4;;;;;;;8.5;80.3;97670;;;;
2021/11/02 23:33:34;;;;;;;18.1;24.2;;;;;;;8.5;80.4;97670;;;;
2021/11/02 23:43:34;;;;;;;18.1;24.2;;;;;;;8.5;80.1;97680;;;;
2021/11/02 23:53:34;;;;;;;18.1;24.2;;;;;;;8.4;80.3;97680;;;;
